sensor_id;sensor_type;location;lat;lon;timestamp;P1;durP1;ratioP1;P2;durP2;ratioP2
29576;SDS011;16509;53.862;10.672;2022-08-27T00:01:52;52.53;;;16.05;;
29576;SDS011;16509;53.862;10.672;2022-08-27T00:04:17;33.53;;;16.52;;
29576;SDS011;16509;53.862;10.672;2022-08-27T00:06:43;31.02;;;14.60;;
29576;SDS011;16509;53.862;10.672;2022-08-27T00:09:09;34.95;;;15.40;;
29576;SDS011;16509;53.862;10.672;2022-08-27T00:11:34;46.03;;;16.88;;
29576;SDS011;16509;53.862;10.672;2022-08-27T00:14:00;40.55;;;15.32;;
29576;SDS011;16509;53.862;10.672;2022-08-27T00:16:27;37.50;;;15.15;;
29576;SDS011;16509;53.862;10.672;2022-08-27T00:18:53;34.70;;;15.95;;
29576;SDS011;16509;53.862;10.672;2022-08-27T00:21:19;43.38;;;18.88;;
29576;SDS011;16509;53.862;10.672;2022-08-27T00:23:45;41.35;;;17.02;;
29576;SDS011;16509;53.862;10.672;2022-08-27T00:26:11;42.70;;;16.63;;
29576;SDS011;16509;53.862;10.672;2022-08-27T00:28:38;37.63;;;15.57;;
29576;SDS011;16509;53.862;10.672;2022-08-27T00:31:05;40.47;;;14.48;;
29576;SDS011;16509;53.862;10.672;2022-08-27T00:33:31;44.47;;;17.20;;
29576;SDS011;16509;53.862;10.672;2022-08-27T00:35:57;37.03;;;16.30;;
29576;SDS011;16509;53.862;10.672;2022-08-27T00:38:22;37.53;;;16.35;;
29576;SDS011;16509;53.862;10.672;2022-08-27T00:40:48;46.80;;;15.73;;
29576;SDS011;16509;53.862;10.672;2022-08-27T00:43:29;39.70;;;15.35;;
29576;SDS011;16509;53.862;10.672;2022-08-27T00:46:07;46.95;;;17.70;;
29576;SDS011;16509;53.862;10.672;2022-08-27T00:48:40;42.63;;;17.20;;
29576;SDS011;16509;53.862;10.672;2022-08-27T00:51:06;44.47;;;18.83;;
29576;SDS011;16509;53.862;10.672;2022-08-27T00:53:32;43.55;;;16.48;;
29576;SDS011;16509;53.862;10.672;2022-08-27T00:56:04;39.15;;;16.08;;
29576;SDS011;16509;53.862;10.672;2022-08-27T00:58:35;50.10;;;16.92;;
29576;SDS011;16509;53.862;10.672;2022-08-27T01:01:10;35.40;;;14.98;;
29576;SDS011;16509;53.862;10.672;2022-08-27T01:03:38;41.95;;;17.27;;
29576;SDS011;16509;53.862;10.672;2022-08-27T01:06:05;35.53;;;15.02;;
29576;SDS011;16509;53.862;10.672;2022-08-27T01:08:35;42.00;;;16.98;;
29576;SDS011;16509;53.862;10.672;2022-08-27T01:11:04;36.92;;;15.98;;
29576;SDS011;16509;53.862;10.672;2022-08-27T01:13:31;36.00;;;15.15;;
29576;SDS011;16509;53.862;10.672;2022-08-27T01:15:58;37.42;;;15.70;;
29576;SDS011;16509;53.862;10.672;2022-08-27T01:18:27;32.97;;;15.15;;
29576;SDS011;16509;53.862;10.672;2022-08-27T01:23:46;37.25;;;15.48;;
29576;SDS011;16509;53.862;10.672;2022-08-27T01:26:16;29.73;;;15.00;;
29576;SDS011;16509;53.862;10.672;2022-08-27T01:28:42;32.10;;;15.35;;
29576;SDS011;16509;53.862;10.672;2022-08-27T01:31:09;34.58;;;15.50;;
29576;SDS011;16509;53.862;10.672;2022-08-27T01:33:36;32.72;;;14.23;;
29576;SDS011;16509;53.862;10.672;2022-08-27T01:36:02;28.95;;;13.85;;
29576;SDS011;16509;53.862;10.672;2022-08-27T01:38:29;40.85;;;15.10;;
29576;SDS011;16509;53.862;10.672;2022-08-27T01:40:55;36.38;;;16.05;;
29576;SDS011;16509;53.862;10.672;2022-08-27T01:43:21;37.90;;;16.98;;
29576;SDS011;16509;53.862;10.672;2022-08-27T01:45:48;36.20;;;14.77;;
29576;SDS011;16509;53.862;10.672;2022-08-27T01:48:16;40.35;;;16.33;;
29576;SDS011;16509;53.862;10.672;2022-08-27T01:50:43;39.83;;;17.17;;
29576;SDS011;16509;53.862;10.672;2022-08-27T01:53:16;36.58;;;14.93;;
29576;SDS011;16509;53.862;10.672;2022-08-27T01:55:44;38.88;;;14.68;;
29576;SDS011;16509;53.862;10.672;2022-08-27T01:58:11;41.03;;;15.23;;
29576;SDS011;16509;53.862;10.672;2022-08-27T02:00:38;36.85;;;15.77;;
29576;SDS011;16509;53.862;10.672;2022-08-27T02:03:07;32.28;;;14.98;;
29576;SDS011;16509;53.862;10.672;2022-08-27T02:05:34;27.63;;;12.55;;
29576;SDS011;16509;53.862;10.672;2022-08-27T02:08:00;18.13;;;6.10;;
29576;SDS011;16509;53.862;10.672;2022-08-27T02:10:28;9.85;;;4.35;;
29576;SDS011;16509;53.862;10.672;2022-08-27T02:12:56;11.35;;;4.13;;
29576;SDS011;16509;53.862;10.672;2022-08-27T02:15:22;8.00;;;3.50;;
29576;SDS011;16509;53.862;10.672;2022-08-27T02:17:48;8.60;;;3.63;;
29576;SDS011;16509;53.862;10.672;2022-08-27T02:20:14;7.05;;;3.08;;
29576;SDS011;16509;53.862;10.672;2022-08-27T02:22:41;8.60;;;3.35;;
29576;SDS011;16509;53.862;10.672;2022-08-27T02:25:08;9.82;;;3.33;;
29576;SDS011;16509;53.862;10.672;2022-08-27T02:27:36;16.15;;;3.70;;
29576;SDS011;16509;53.862;10.672;2022-08-27T02:30:02;10.75;;;3.58;;
29576;SDS011;16509;53.862;10.672;2022-08-27T02:32:28;6.43;;;3.08;;
29576;SDS011;16509;53.862;10.672;2022-08-27T02:34:54;7.90;;;3.58;;
29576;SDS011;16509;53.862;10.672;2022-08-27T02:37:21;10.65;;;3.47;;
29576;SDS011;16509;53.862;10.672;2022-08-27T02:39:46;4.63;;;2.53;;
29576;SDS011;16509;53.862;10.672;2022-08-27T02:42:12;10.18;;;2.40;;
29576;SDS011;16509;53.862;10.672;2022-08-27T02:44:38;5.40;;;1.95;;
29576;SDS011;16509;53.862;10.672;2022-08-27T02:47:04;5.05;;;2.10;;
29576;SDS011;16509;53.862;10.672;2022-08-27T02:49:29;5.50;;;2.15;;
29576;SDS011;16509;53.862;10.672;2022-08-27T02:51:56;3.85;;;2.05;;
29576;SDS011;16509;53.862;10.672;2022-08-27T02:54:22;5.22;;;2.30;;
29576;SDS011;16509;53.862;10.672;2022-08-27T02:56:49;4.30;;;1.88;;
29576;SDS011;16509;53.862;10.672;2022-08-27T02:59:16;6.10;;;1.95;;
29576;SDS011;16509;53.862;10.672;2022-08-27T03:01:42;4.47;;;1.60;;
29576;SDS011;16509;53.862;10.672;2022-08-27T03:04:08;4.40;;;1.67;;
29576;SDS011;16509;53.862;10.672;2022-08-27T03:06:35;4.45;;;1.73;;
29576;SDS011;16509;53.862;10.672;2022-08-27T03:09:00;2.47;;;1.60;;
29576;SDS011;16509;53.862;10.672;2022-08-27T03:11:26;3.65;;;1.48;;
29576;SDS011;16509;53.862;10.672;2022-08-27T03:13:51;3.25;;;1.70;;
29576;SDS011;16509;53.862;10.672;2022-08-27T03:16:17;2.35;;;1.77;;
29576;SDS011;16509;53.862;10.672;2022-08-27T03:18:43;2.88;;;1.80;;
29576;SDS011;16509;53.862;10.672;2022-08-27T03:21:14;3.25;;;1.67;;
29576;SDS011;16509;53.862;10.672;2022-08-27T03:23:43;4.40;;;2.15;;
29576;SDS011;16509;53.862;10.672;2022-08-27T03:26:09;4.43;;;1.88;;
29576;SDS011;16509;53.862;10.672;2022-08-27T03:28:35;10.38;;;2.22;;
29576;SDS011;16509;53.862;10.672;2022-08-27T03:31:03;3.17;;;1.90;;
29576;SDS011;16509;53.862;10.672;2022-08-27T03:33:32;5.00;;;2.30;;
29576;SDS011;16509;53.862;10.672;2022-08-27T03:36:02;3.20;;;2.47;;
29576;SDS011;16509;53.862;10.672;2022-08-27T03:38:29;3.42;;;2.05;;
29576;SDS011;16509;53.862;10.672;2022-08-27T03:40:54;3.28;;;2.13;;
29576;SDS011;16509;53.862;10.672;2022-08-27T03:43:20;3.97;;;2.08;;
29576;SDS011;16509;53.862;10.672;2022-08-27T03:45:47;3.97;;;1.92;;
29576;SDS011;16509;53.862;10.672;2022-08-27T03:48:14;2.80;;;1.80;;
29576;SDS011;16509;53.862;10.672;2022-08-27T03:50:41;5.72;;;2.20;;
29576;SDS011;16509;53.862;10.672;2022-08-27T03:53:09;4.00;;;1.85;;
29576;SDS011;16509;53.862;10.672;2022-08-27T03:55:35;5.57;;;2.30;;
29576;SDS011;16509;53.862;10.672;2022-08-27T03:58:01;6.93;;;2.38;;
29576;SDS011;16509;53.862;10.672;2022-08-27T04:00:27;4.30;;;2.75;;
29576;SDS011;16509;53.862;10.672;2022-08-27T04:02:53;5.60;;;3.00;;
29576;SDS011;16509;53.862;10.672;2022-08-27T04:05:19;10.25;;;3.45;;
29576;SDS011;16509;53.862;10.672;2022-08-27T04:07:46;6.40;;;3.28;;
29576;SDS011;16509;53.862;10.672;2022-08-27T04:10:12;7.32;;;3.42;;
29576;SDS011;16509;53.862;10.672;2022-08-27T04:12:39;10.05;;;5.78;;
29576;SDS011;16509;53.862;10.672;2022-08-27T04:15:05;13.27;;;5.90;;
29576;SDS011;16509;53.862;10.672;2022-08-27T04:17:32;11.27;;;5.30;;
29576;SDS011;16509;53.862;10.672;2022-08-27T04:19:58;8.52;;;5.65;;
29576;SDS011;16509;53.862;10.672;2022-08-27T04:22:24;16.80;;;7.35;;
29576;SDS011;16509;53.862;10.672;2022-08-27T04:24:50;13.93;;;6.60;;
29576;SDS011;16509;53.862;10.672;2022-08-27T04:27:16;12.43;;;6.22;;
29576;SDS011;16509;53.862;10.672;2022-08-27T04:29:42;18.80;;;8.60;;
29576;SDS011;16509;53.862;10.672;2022-08-27T04:32:08;22.05;;;9.80;;
29576;SDS011;16509;53.862;10.672;2022-08-27T04:34:34;27.42;;;11.13;;
29576;SDS011;16509;53.862;10.672;2022-08-27T04:37:00;29.65;;;11.70;;
29576;SDS011;16509;53.862;10.672;2022-08-27T04:39:27;39.47;;;12.85;;
29576;SDS011;16509;53.862;10.672;2022-08-27T04:41:54;32.95;;;14.13;;
29576;SDS011;16509;53.862;10.672;2022-08-27T04:44:22;32.78;;;14.27;;
29576;SDS011;16509;53.862;10.672;2022-08-27T04:46:48;45.50;;;15.23;;
29576;SDS011;16509;53.862;10.672;2022-08-27T04:49:20;34.33;;;16.50;;
29576;SDS011;16509;53.862;10.672;2022-08-27T04:51:46;42.28;;;16.98;;
29576;SDS011;16509;53.862;10.672;2022-08-27T04:54:11;47.05;;;17.40;;
29576;SDS011;16509;53.862;10.672;2022-08-27T04:56:37;47.53;;;18.05;;
29576;SDS011;16509;53.862;10.672;2022-08-27T04:59:04;57.65;;;19.52;;
29576;SDS011;16509;53.862;10.672;2022-08-27T05:01:32;46.47;;;18.38;;
29576;SDS011;16509;53.862;10.672;2022-08-27T05:03:58;44.58;;;18.13;;
29576;SDS011;16509;53.862;10.672;2022-08-27T05:06:23;51.25;;;18.27;;
29576;SDS011;16509;53.862;10.672;2022-08-27T05:08:50;48.53;;;19.45;;
29576;SDS011;16509;53.862;10.672;2022-08-27T05:11:16;45.13;;;17.75;;
29576;SDS011;16509;53.862;10.672;2022-08-27T05:13:43;35.53;;;15.63;;
29576;SDS011;16509;53.862;10.672;2022-08-27T05:16:11;34.72;;;16.65;;
29576;SDS011;16509;53.862;10.672;2022-08-27T05:18:38;34.90;;;16.25;;
29576;SDS011;16509;53.862;10.672;2022-08-27T05:21:05;34.28;;;15.23;;
29576;SDS011;16509;53.862;10.672;2022-08-27T05:23:32;36.78;;;15.55;;
29576;SDS011;16509;53.862;10.672;2022-08-27T05:25:58;29.92;;;15.73;;
29576;SDS011;16509;53.862;10.672;2022-08-27T05:28:25;35.10;;;14.50;;
29576;SDS011;16509;53.862;10.672;2022-08-27T05:30:53;33.67;;;13.77;;
29576;SDS011;16509;53.862;10.672;2022-08-27T05:33:21;29.20;;;14.05;;
29576;SDS011;16509;53.862;10.672;2022-08-27T05:35:49;36.95;;;16.20;;
29576;SDS011;16509;53.862;10.672;2022-08-27T05:38:17;34.17;;;15.45;;
29576;SDS011;16509;53.862;10.672;2022-08-27T05:40:44;33.75;;;15.35;;
29576;SDS011;16509;53.862;10.672;2022-08-27T05:43:12;28.30;;;14.02;;
29576;SDS011;16509;53.862;10.672;2022-08-27T05:45:42;30.70;;;12.82;;
29576;SDS011;16509;53.862;10.672;2022-08-27T05:48:13;29.33;;;13.50;;
29576;SDS011;16509;53.862;10.672;2022-08-27T05:50:40;32.35;;;13.77;;
29576;SDS011;16509;53.862;10.672;2022-08-27T05:53:07;29.08;;;12.13;;
29576;SDS011;16509;53.862;10.672;2022-08-27T05:55:37;25.55;;;12.90;;
29576;SDS011;16509;53.862;10.672;2022-08-27T05:58:06;26.30;;;11.80;;
29576;SDS011;16509;53.862;10.672;2022-08-27T06:00:32;26.67;;;12.65;;
29576;SDS011;16509;53.862;10.672;2022-08-27T06:03:20;24.05;;;11.07;;
29576;SDS011;16509;53.862;10.672;2022-08-27T06:05:46;28.25;;;12.18;;
29576;SDS011;16509;53.862;10.672;2022-08-27T06:08:11;29.02;;;12.18;;
29576;SDS011;16509;53.862;10.672;2022-08-27T06:10:38;24.42;;;10.52;;
29576;SDS011;16509;53.862;10.672;2022-08-27T06:13:05;21.45;;;10.85;;
29576;SDS011;16509;53.862;10.672;2022-08-27T06:15:31;21.20;;;10.57;;
29576;SDS011;16509;53.862;10.672;2022-08-27T06:17:57;25.63;;;11.80;;
29576;SDS011;16509;53.862;10.672;2022-08-27T06:20:22;30.73;;;12.10;;
29576;SDS011;16509;53.862;10.672;2022-08-27T06:22:48;22.67;;;11.10;;
29576;SDS011;16509;53.862;10.672;2022-08-27T06:25:14;22.98;;;10.70;;
29576;SDS011;16509;53.862;10.672;2022-08-27T06:27:39;23.80;;;10.93;;
29576;SDS011;16509;53.862;10.672;2022-08-27T06:30:05;19.50;;;10.45;;
29576;SDS011;16509;53.862;10.672;2022-08-27T06:32:31;25.65;;;10.88;;
29576;SDS011;16509;53.862;10.672;2022-08-27T06:34:57;24.05;;;11.60;;
29576;SDS011;16509;53.862;10.672;2022-08-27T06:37:22;21.75;;;10.55;;
29576;SDS011;16509;53.862;10.672;2022-08-27T06:39:48;25.10;;;11.45;;
29576;SDS011;16509;53.862;10.672;2022-08-27T06:42:15;23.25;;;10.15;;
29576;SDS011;16509;53.862;10.672;2022-08-27T06:44:41;23.40;;;9.93;;
29576;SDS011;16509;53.862;10.672;2022-08-27T06:47:07;29.17;;;10.48;;
29576;SDS011;16509;53.862;10.672;2022-08-27T06:49:32;24.73;;;9.57;;
29576;SDS011;16509;53.862;10.672;2022-08-27T06:51:58;23.63;;;11.45;;
29576;SDS011;16509;53.862;10.672;2022-08-27T06:54:24;32.25;;;11.98;;
29576;SDS011;16509;53.862;10.672;2022-08-27T06:56:50;19.77;;;9.88;;
29576;SDS011;16509;53.862;10.672;2022-08-27T06:59:16;22.80;;;10.30;;
29576;SDS011;16509;53.862;10.672;2022-08-27T07:01:45;24.83;;;10.88;;
29576;SDS011;16509;53.862;10.672;2022-08-27T07:04:16;22.75;;;10.85;;
29576;SDS011;16509;53.862;10.672;2022-08-27T07:06:44;21.25;;;9.77;;
29576;SDS011;16509;53.862;10.672;2022-08-27T07:09:09;23.40;;;10.63;;
29576;SDS011;16509;53.862;10.672;2022-08-27T07:11:35;21.48;;;10.38;;
29576;SDS011;16509;53.862;10.672;2022-08-27T07:14:02;21.25;;;9.60;;
29576;SDS011;16509;53.862;10.672;2022-08-27T07:16:29;22.08;;;9.32;;
29576;SDS011;16509;53.862;10.672;2022-08-27T07:18:56;19.17;;;8.63;;
29576;SDS011;16509;53.862;10.672;2022-08-27T07:21:24;20.52;;;9.88;;
29576;SDS011;16509;53.862;10.672;2022-08-27T07:23:51;23.88;;;8.85;;
29576;SDS011;16509;53.862;10.672;2022-08-27T07:26:19;18.40;;;8.93;;
29576;SDS011;16509;53.862;10.672;2022-08-27T07:28:46;22.20;;;9.40;;
29576;SDS011;16509;53.862;10.672;2022-08-27T07:31:13;22.30;;;9.23;;
29576;SDS011;16509;53.862;10.672;2022-08-27T07:33:41;20.02;;;9.43;;
29576;SDS011;16509;53.862;10.672;2022-08-27T07:36:07;17.15;;;8.35;;
29576;SDS011;16509;53.862;10.672;2022-08-27T07:38:34;15.95;;;7.63;;
29576;SDS011;16509;53.862;10.672;2022-08-27T07:41:06;14.75;;;8.02;;
29576;SDS011;16509;53.862;10.672;2022-08-27T07:43:34;18.05;;;8.60;;
29576;SDS011;16509;53.862;10.672;2022-08-27T07:46:19;17.15;;;8.85;;
29576;SDS011;16509;53.862;10.672;2022-08-27T07:48:46;19.90;;;8.50;;
29576;SDS011;16509;53.862;10.672;2022-08-27T07:51:16;17.13;;;9.00;;
29576;SDS011;16509;53.862;10.672;2022-08-27T07:53:44;16.00;;;7.88;;
29576;SDS011;16509;53.862;10.672;2022-08-27T07:56:10;18.05;;;7.85;;
29576;SDS011;16509;53.862;10.672;2022-08-27T07:58:37;18.48;;;7.68;;
29576;SDS011;16509;53.862;10.672;2022-08-27T08:01:03;15.45;;;7.88;;
29576;SDS011;16509;53.862;10.672;2022-08-27T08:03:29;14.95;;;7.05;;
29576;SDS011;16509;53.862;10.672;2022-08-27T08:05:55;13.23;;;6.97;;
29576;SDS011;16509;53.862;10.672;2022-08-27T08:08:26;17.23;;;7.88;;
29576;SDS011;16509;53.862;10.672;2022-08-27T08:10:55;14.45;;;7.55;;
29576;SDS011;16509;53.862;10.672;2022-08-27T08:13:21;13.13;;;6.75;;
29576;SDS011;16509;53.862;10.672;2022-08-27T08:15:47;20.27;;;8.10;;
29576;SDS011;16509;53.862;10.672;2022-08-27T08:18:13;12.65;;;7.25;;
29576;SDS011;16509;53.862;10.672;2022-08-27T08:20:39;12.90;;;6.82;;
29576;SDS011;16509;53.862;10.672;2022-08-27T08:23:05;13.60;;;6.70;;
29576;SDS011;16509;53.862;10.672;2022-08-27T08:25:32;12.75;;;6.88;;
29576;SDS011;16509;53.862;10.672;2022-08-27T08:27:57;13.52;;;6.88;;
29576;SDS011;16509;53.862;10.672;2022-08-27T08:30:24;13.52;;;7.45;;
29576;SDS011;16509;53.862;10.672;2022-08-27T08:32:51;10.95;;;6.78;;
29576;SDS011;16509;53.862;10.672;2022-08-27T08:35:16;10.35;;;6.55;;
29576;SDS011;16509;53.862;10.672;2022-08-27T08:37:43;11.27;;;6.25;;
29576;SDS011;16509;53.862;10.672;2022-08-27T08:40:10;13.63;;;7.18;;
29576;SDS011;16509;53.862;10.672;2022-08-27T08:42:50;12.15;;;6.35;;
29576;SDS011;16509;53.862;10.672;2022-08-27T08:45:18;18.13;;;6.28;;
29576;SDS011;16509;53.862;10.672;2022-08-27T08:47:52;12.40;;;6.03;;
29576;SDS011;16509;53.862;10.672;2022-08-27T08:50:37;10.02;;;5.85;;
29576;SDS011;16509;53.862;10.672;2022-08-27T08:54:01;10.27;;;5.32;;
29576;SDS011;16509;53.862;10.672;2022-08-27T08:56:00;11.52;;;5.90;;
29576;SDS011;16509;53.862;10.672;2022-08-27T09:01:48;14.35;;;6.13;;
29576;SDS011;16509;53.862;10.672;2022-08-27T09:04:14;14.23;;;5.22;;
29576;SDS011;16509;53.862;10.672;2022-08-27T09:06:52;12.68;;;5.65;;
29576;SDS011;16509;53.862;10.672;2022-08-27T09:12:11;12.93;;;5.18;;
29576;SDS011;16509;53.862;10.672;2022-08-27T09:17:18;9.05;;;5.40;;
29576;SDS011;16509;53.862;10.672;2022-08-27T09:19:44;8.60;;;5.20;;
29576;SDS011;16509;53.862;10.672;2022-08-27T09:25:10;9.70;;;5.10;;
29576;SDS011;16509;53.862;10.672;2022-08-27T09:27:45;8.95;;;5.13;;
29576;SDS011;16509;53.862;10.672;2022-08-27T09:30:22;13.05;;;5.47;;
29576;SDS011;16509;53.862;10.672;2022-08-27T09:32:53;13.98;;;5.63;;
29576;SDS011;16509;53.862;10.672;2022-08-27T09:35:22;14.75;;;5.95;;
29576;SDS011;16509;53.862;10.672;2022-08-27T09:37:51;11.90;;;5.25;;
29576;SDS011;16509;53.862;10.672;2022-08-27T09:42:55;13.55;;;5.75;;
29576;SDS011;16509;53.862;10.672;2022-08-27T09:45:26;11.35;;;4.75;;
29576;SDS011;16509;53.862;10.672;2022-08-27T09:48:07;12.27;;;5.18;;
29576;SDS011;16509;53.862;10.672;2022-08-27T09:50:54;15.45;;;5.68;;
29576;SDS011;16509;53.862;10.672;2022-08-27T09:56:33;13.32;;;4.07;;
29576;SDS011;16509;53.862;10.672;2022-08-27T10:01:36;12.63;;;5.20;;
29576;SDS011;16509;53.862;10.672;2022-08-27T10:04:25;11.75;;;4.88;;
29576;SDS011;16509;53.862;10.672;2022-08-27T10:06:58;9.05;;;4.55;;
29576;SDS011;16509;53.862;10.672;2022-08-27T10:09:37;9.93;;;4.47;;
29576;SDS011;16509;53.862;10.672;2022-08-27T10:12:32;12.45;;;4.80;;
29576;SDS011;16509;53.862;10.672;2022-08-27T10:15:17;8.23;;;4.57;;
29576;SDS011;16509;53.862;10.672;2022-08-27T10:17:50;9.93;;;4.40;;
29576;SDS011;16509;53.862;10.672;2022-08-27T10:20:38;14.57;;;5.00;;
29576;SDS011;16509;53.862;10.672;2022-08-27T10:43:33;8.23;;;3.97;;
29576;SDS011;16509;53.862;10.672;2022-08-27T10:46:38;10.52;;;4.57;;
29576;SDS011;16509;53.862;10.672;2022-08-27T10:54:58;11.65;;;4.20;;
29576;SDS011;16509;53.862;10.672;2022-08-27T10:57:47;8.07;;;3.30;;
29576;SDS011;16509;53.862;10.672;2022-08-27T11:00:28;5.65;;;3.47;;
29576;SDS011;16509;53.862;10.672;2022-08-27T11:03:10;4.55;;;2.75;;
29576;SDS011;16509;53.862;10.672;2022-08-27T11:05:42;6.72;;;3.25;;
29576;SDS011;16509;53.862;10.672;2022-08-27T11:08:56;6.60;;;3.70;;
29576;SDS011;16509;53.862;10.672;2022-08-27T11:11:46;6.45;;;3.42;;
29576;SDS011;16509;53.862;10.672;2022-08-27T11:13:57;9.10;;;3.53;;
29576;SDS011;16509;53.862;10.672;2022-08-27T11:16:24;8.25;;;3.92;;
29576;SDS011;16509;53.862;10.672;2022-08-27T11:18:59;7.97;;;3.47;;
29576;SDS011;16509;53.862;10.672;2022-08-27T11:24:32;5.82;;;3.67;;
29576;SDS011;16509;53.862;10.672;2022-08-27T11:27:02;7.85;;;4.13;;
29576;SDS011;16509;53.862;10.672;2022-08-27T11:29:35;9.63;;;3.85;;
29576;SDS011;16509;53.862;10.672;2022-08-27T11:32:31;7.82;;;4.00;;
29576;SDS011;16509;53.862;10.672;2022-08-27T11:35:19;7.90;;;3.53;;
29576;SDS011;16509;53.862;10.672;2022-08-27T11:40:43;6.70;;;3.75;;
29576;SDS011;16509;53.862;10.672;2022-08-27T11:43:20;12.55;;;3.85;;
29576;SDS011;16509;53.862;10.672;2022-08-27T11:46:04;6.82;;;3.78;;
29576;SDS011;16509;53.862;10.672;2022-08-27T11:48:33;11.02;;;3.78;;
29576;SDS011;16509;53.862;10.672;2022-08-27T11:53:55;13.48;;;4.18;;
29576;SDS011;16509;53.862;10.672;2022-08-27T11:58:55;6.93;;;3.53;;
29576;SDS011;16509;53.862;10.672;2022-08-27T12:01:32;10.30;;;4.35;;
29576;SDS011;16509;53.862;10.672;2022-08-27T12:04:19;12.20;;;4.68;;
29576;SDS011;16509;53.862;10.672;2022-08-27T12:06:44;5.38;;;3.25;;
29576;SDS011;16509;53.862;10.672;2022-08-27T12:09:17;6.55;;;3.63;;
29576;SDS011;16509;53.862;10.672;2022-08-27T12:14:53;11.80;;;3.60;;
29576;SDS011;16509;53.862;10.672;2022-08-27T12:17:33;10.95;;;3.85;;
29576;SDS011;16509;53.862;10.672;2022-08-27T12:20:32;6.80;;;3.40;;
29576;SDS011;16509;53.862;10.672;2022-08-27T12:23:20;7.72;;;3.20;;
29576;SDS011;16509;53.862;10.672;2022-08-27T12:34:25;9.20;;;3.38;;
29576;SDS011;16509;53.862;10.672;2022-08-27T12:36:53;11.40;;;3.33;;
29576;SDS011;16509;53.862;10.672;2022-08-27T12:39:25;10.50;;;3.50;;
29576;SDS011;16509;53.862;10.672;2022-08-27T12:41:52;5.50;;;3.08;;
29576;SDS011;16509;53.862;10.672;2022-08-27T12:46:57;11.25;;;3.50;;
29576;SDS011;16509;53.862;10.672;2022-08-27T12:49:29;11.75;;;3.95;;
29576;SDS011;16509;53.862;10.672;2022-08-27T12:52:02;7.28;;;3.63;;
29576;SDS011;16509;53.862;10.672;2022-08-27T12:54:53;9.32;;;3.65;;
29576;SDS011;16509;53.862;10.672;2022-08-27T12:57:55;13.27;;;4.07;;
29576;SDS011;16509;53.862;10.672;2022-08-27T13:00:37;12.13;;;4.53;;
29576;SDS011;16509;53.862;10.672;2022-08-27T13:05:52;13.68;;;3.97;;
29576;SDS011;16509;53.862;10.672;2022-08-27T13:10:52;12.48;;;3.60;;
29576;SDS011;16509;53.862;10.672;2022-08-27T13:13:23;10.35;;;3.83;;
29576;SDS011;16509;53.862;10.672;2022-08-27T13:15:56;8.95;;;3.40;;
29576;SDS011;16509;53.862;10.672;2022-08-27T13:18:26;11.73;;;4.20;;
29576;SDS011;16509;53.862;10.672;2022-08-27T13:21:10;13.75;;;3.80;;
29576;SDS011;16509;53.862;10.672;2022-08-27T13:26:20;9.57;;;3.78;;
29576;SDS011;16509;53.862;10.672;2022-08-27T13:28:47;8.93;;;3.58;;
29576;SDS011;16509;53.862;10.672;2022-08-27T13:33:46;6.68;;;3.00;;
29576;SDS011;16509;53.862;10.672;2022-08-27T13:36:12;7.32;;;3.03;;
29576;SDS011;16509;53.862;10.672;2022-08-27T13:38:43;12.77;;;3.40;;
29576;SDS011;16509;53.862;10.672;2022-08-27T13:43:53;8.10;;;3.63;;
29576;SDS011;16509;53.862;10.672;2022-08-27T13:46:26;8.02;;;3.40;;
29576;SDS011;16509;53.862;10.672;2022-08-27T13:48:54;4.63;;;3.00;;
29576;SDS011;16509;53.862;10.672;2022-08-27T13:51:23;8.20;;;3.13;;
29576;SDS011;16509;53.862;10.672;2022-08-27T13:53:57;5.57;;;3.22;;
29576;SDS011;16509;53.862;10.672;2022-08-27T13:56:39;5.93;;;3.30;;
29576;SDS011;16509;53.862;10.672;2022-08-27T14:04:35;7.43;;;3.00;;
29576;SDS011;16509;53.862;10.672;2022-08-27T14:07:06;3.97;;;2.28;;
29576;SDS011;16509;53.862;10.672;2022-08-27T14:09:51;5.05;;;3.63;;
29576;SDS011;16509;53.862;10.672;2022-08-27T14:12:26;7.63;;;3.08;;
29576;SDS011;16509;53.862;10.672;2022-08-27T14:14:54;4.38;;;2.35;;
29576;SDS011;16509;53.862;10.672;2022-08-27T14:17:22;8.95;;;2.80;;
29576;SDS011;16509;53.862;10.672;2022-08-27T14:19:58;4.80;;;2.47;;
29576;SDS011;16509;53.862;10.672;2022-08-27T14:22:25;4.55;;;2.22;;
29576;SDS011;16509;53.862;10.672;2022-08-27T14:24:51;8.73;;;2.20;;
29576;SDS011;16509;53.862;10.672;2022-08-27T14:27:21;7.85;;;1.92;;
29576;SDS011;16509;53.862;10.672;2022-08-27T14:29:46;5.85;;;2.17;;
29576;SDS011;16509;53.862;10.672;2022-08-27T14:32:14;6.25;;;1.98;;
29576;SDS011;16509;53.862;10.672;2022-08-27T14:34:42;9.77;;;2.58;;
29576;SDS011;16509;53.862;10.672;2022-08-27T14:37:08;4.35;;;1.88;;
29576;SDS011;16509;53.862;10.672;2022-08-27T14:39:34;6.32;;;2.08;;
29576;SDS011;16509;53.862;10.672;2022-08-27T14:42:00;3.72;;;1.77;;
29576;SDS011;16509;53.862;10.672;2022-08-27T14:44:25;6.38;;;2.10;;
29576;SDS011;16509;53.862;10.672;2022-08-27T14:46:51;6.22;;;2.00;;
29576;SDS011;16509;53.862;10.672;2022-08-27T14:49:20;5.10;;;1.95;;
29576;SDS011;16509;53.862;10.672;2022-08-27T14:51:56;3.50;;;1.73;;
29576;SDS011;16509;53.862;10.672;2022-08-27T14:54:22;9.48;;;2.47;;
29576;SDS011;16509;53.862;10.672;2022-08-27T14:56:48;5.45;;;1.90;;
29576;SDS011;16509;53.862;10.672;2022-08-27T15:01:48;4.55;;;1.88;;
29576;SDS011;16509;53.862;10.672;2022-08-27T15:04:14;6.72;;;2.38;;
29576;SDS011;16509;53.862;10.672;2022-08-27T15:06:41;7.50;;;1.88;;
29576;SDS011;16509;53.862;10.672;2022-08-27T15:09:06;6.57;;;1.77;;
29576;SDS011;16509;53.862;10.672;2022-08-27T15:11:33;7.38;;;2.15;;
29576;SDS011;16509;53.862;10.672;2022-08-27T15:14:02;7.57;;;2.17;;
29576;SDS011;16509;53.862;10.672;2022-08-27T15:16:32;4.32;;;1.70;;
29576;SDS011;16509;53.862;10.672;2022-08-27T15:21:31;4.55;;;1.73;;
29576;SDS011;16509;53.862;10.672;2022-08-27T15:24:03;5.55;;;1.83;;
29576;SDS011;16509;53.862;10.672;2022-08-27T15:26:35;3.47;;;1.73;;
29576;SDS011;16509;53.862;10.672;2022-08-27T15:29:01;6.20;;;1.63;;
29576;SDS011;16509;53.862;10.672;2022-08-27T15:31:27;3.60;;;1.33;;
29576;SDS011;16509;53.862;10.672;2022-08-27T15:33:53;3.67;;;1.42;;
29576;SDS011;16509;53.862;10.672;2022-08-27T15:36:18;5.13;;;1.58;;
29576;SDS011;16509;53.862;10.672;2022-08-27T15:38:44;3.97;;;1.50;;
29576;SDS011;16509;53.862;10.672;2022-08-27T15:41:10;3.90;;;1.60;;
29576;SDS011;16509;53.862;10.672;2022-08-27T15:43:36;3.80;;;1.42;;
29576;SDS011;16509;53.862;10.672;2022-08-27T15:46:02;4.60;;;1.25;;
29576;SDS011;16509;53.862;10.672;2022-08-27T15:48:29;4.57;;;1.20;;
29576;SDS011;16509;53.862;10.672;2022-08-27T15:50:55;5.50;;;1.23;;
29576;SDS011;16509;53.862;10.672;2022-08-27T15:53:23;2.53;;;1.00;;
29576;SDS011;16509;53.862;10.672;2022-08-27T15:55:50;9.63;;;1.40;;
29576;SDS011;16509;53.862;10.672;2022-08-27T15:58:15;5.40;;;1.40;;
29576;SDS011;16509;53.862;10.672;2022-08-27T16:00:42;6.38;;;1.75;;
29576;SDS011;16509;53.862;10.672;2022-08-27T16:03:10;2.67;;;1.20;;
29576;SDS011;16509;53.862;10.672;2022-08-27T16:05:38;3.63;;;1.10;;
29576;SDS011;16509;53.862;10.672;2022-08-27T16:08:05;5.38;;;1.55;;
29576;SDS011;16509;53.862;10.672;2022-08-27T16:10:31;5.65;;;1.27;;
29576;SDS011;16509;53.862;10.672;2022-08-27T16:12:57;4.70;;;0.90;;
29576;SDS011;16509;53.862;10.672;2022-08-27T16:15:23;9.40;;;1.50;;